sensor_id;sensor_type;location;lat;lon;timestamp;temperature;humidity
66373;SHT30;53168;51.146;17.120;2023-05-18T00:19:19;9.35;67.91
66373;SHT30;53168;51.146;17.120;2023-05-18T00:22:08;9.28;67.98
66373;SHT30;53168;51.146;17.120;2023-05-18T00:24:48;9.23;68.06
66373;SHT30;53168;51.146;17.120;2023-05-18T00:27:19;9.21;68.05
66373;SHT30;53168;51.146;17.120;2023-05-18T00:29:58;9.17;68.14
66373;SHT30;53168;51.146;17.120;2023-05-18T00:32:36;9.10;68.28
66373;SHT30;53168;51.146;17.120;2023-05-18T00:38:00;8.96;68.57
66373;SHT30;53168;51.146;17.120;2023-05-18T00:40:31;8.91;68.73
66373;SHT30;53168;51.146;17.120;2023-05-18T00:43:01;8.88;68.79
66373;SHT30;53168;51.146;17.120;2023-05-18T00:45:35;8.85;68.88
66373;SHT30;53168;51.146;17.120;2023-05-18T00:48:09;8.79;68.90
66373;SHT30;53168;51.146;17.120;2023-05-18T01:14:12;8.50;69.50
66373;SHT30;53168;51.146;17.120;2023-05-18T01:17:09;8.51;69.50
66373;SHT30;53168;51.146;17.120;2023-05-18T01:20:18;8.48;69.56
66373;SHT30;53168;51.146;17.120;2023-05-18T02:03:07;8.42;69.30
66373;SHT30;53168;51.146;17.120;2023-05-18T02:13:39;8.35;69.30
66373;SHT30;53168;51.146;17.120;2023-05-18T02:16:50;8.40;69.20
66373;SHT30;53168;51.146;17.120;2023-05-18T02:47:06;8.46;68.80
66373;SHT30;53168;51.146;17.120;2023-05-18T02:54:12;8.51;68.75
66373;SHT30;53168;51.146;17.120;2023-05-18T02:56:46;8.52;68.70
66373;SHT30;53168;51.146;17.120;2023-05-18T02:59:27;8.52;68.70
66373;SHT30;53168;51.146;17.120;2023-05-18T03:04:51;8.46;68.69
66373;SHT30;53168;51.146;17.120;2023-05-18T03:07:32;8.44;68.73
66373;SHT30;53168;51.146;17.120;2023-05-18T03:10:30;8.47;68.70
66373;SHT30;53168;51.146;17.120;2023-05-18T03:13:13;8.51;68.69
66373;SHT30;53168;51.146;17.120;2023-05-18T03:16:10;8.54;68.62
66373;SHT30;53168;51.146;17.120;2023-05-18T03:19:20;8.53;68.55
66373;SHT30;53168;51.146;17.120;2023-05-18T03:21:58;8.45;68.60
66373;SHT30;53168;51.146;17.120;2023-05-18T03:38:41;8.42;68.40
66373;SHT30;53168;51.146;17.120;2023-05-18T03:41:30;8.40;68.46
66373;SHT30;53168;51.146;17.120;2023-05-18T03:44:02;8.42;68.50
66373;SHT30;53168;51.146;17.120;2023-05-18T03:46:42;8.38;68.48
66373;SHT30;53168;51.146;17.120;2023-05-18T03:49:22;8.42;68.50
66373;SHT30;53168;51.146;17.120;2023-05-18T03:55:50;8.51;68.55
66373;SHT30;53168;51.146;17.120;2023-05-18T03:58:25;8.55;68.50
66373;SHT30;53168;51.146;17.120;2023-05-18T04:01:01;8.58;68.50
66373;SHT30;53168;51.146;17.120;2023-05-18T04:03:39;8.63;68.57
66373;SHT30;53168;51.146;17.120;2023-05-18T04:10:59;8.80;68.30
66373;SHT30;53168;51.146;17.120;2023-05-18T04:13:47;8.82;68.24
66373;SHT30;53168;51.146;17.120;2023-05-18T05:05:55;9.40;67.58
66373;SHT30;53168;51.146;17.120;2023-05-18T05:08:50;9.47;67.54
66373;SHT30;53168;51.146;17.120;2023-05-18T05:11:27;9.52;67.65
66373;SHT30;53168;51.146;17.120;2023-05-18T05:14:03;9.56;67.49
66373;SHT30;53168;51.146;17.120;2023-05-18T05:16:37;9.61;67.55
66373;SHT30;53168;51.146;17.120;2023-05-18T05:19:12;9.65;67.45
66373;SHT30;53168;51.146;17.120;2023-05-18T05:21:51;9.73;67.46
66373;SHT30;53168;51.146;17.120;2023-05-18T05:24:25;9.78;67.39
66373;SHT30;53168;51.146;17.120;2023-05-18T05:26:59;9.87;67.29
66373;SHT30;53168;51.146;17.120;2023-05-18T05:29:34;9.90;66.98
66373;SHT30;53168;51.146;17.120;2023-05-18T05:32:09;9.93;66.74
66373;SHT30;53168;51.146;17.120;2023-05-18T05:34:45;9.94;66.35
66373;SHT30;53168;51.146;17.120;2023-05-18T05:37:23;9.94;66.28
66373;SHT30;53168;51.146;17.120;2023-05-18T05:39:58;10.00;66.44
66373;SHT30;53168;51.146;17.120;2023-05-18T05:42:43;10.06;66.07
66373;SHT30;53168;51.146;17.120;2023-05-18T05:45:20;10.10;65.90
66373;SHT30;53168;51.146;17.120;2023-05-18T05:47:59;10.14;65.85
66373;SHT30;53168;51.146;17.120;2023-05-18T05:50:36;10.22;65.95
66373;SHT30;53168;51.146;17.120;2023-05-18T05:53:10;10.31;65.42
66373;SHT30;53168;51.146;17.120;2023-05-18T05:55:47;10.35;65.03
66373;SHT30;53168;51.146;17.120;2023-05-18T05:58:56;10.36;64.86
66373;SHT30;53168;51.146;17.120;2023-05-18T06:02:47;10.47;65.03
66373;SHT30;53168;51.146;17.120;2023-05-18T07:44:34;13.09;57.62
66373;SHT30;53168;51.146;17.120;2023-05-18T07:47:31;13.13;57.38
66373;SHT30;53168;51.146;17.120;2023-05-18T07:51:15;13.11;56.77
66373;SHT30;53168;51.146;17.120;2023-05-18T09:03:11;15.31;52.99
66373;SHT30;53168;51.146;17.120;2023-05-18T13:06:00;21.02;39.25
66373;SHT30;53168;51.146;17.120;2023-05-18T13:42:55;21.91;38.40
66373;SHT30;53168;51.146;17.120;2023-05-18T13:45:36;21.86;38.14
66373;SHT30;53168;51.146;17.120;2023-05-18T13:48:18;21.61;38.06
66373;SHT30;53168;51.146;17.120;2023-05-18T13:51:12;21.53;38.70
66373;SHT30;53168;51.146;17.120;2023-05-18T13:53:50;21.56;37.87
66373;SHT30;53168;51.146;17.120;2023-05-18T14:06:04;22.50;37.91
66373;SHT30;53168;51.146;17.120;2023-05-18T14:08:44;22.64;36.83
66373;SHT30;53168;51.146;17.120;2023-05-18T14:11:23;22.67;36.69
66373;SHT30;53168;51.146;17.120;2023-05-18T14:13:58;22.73;37.33
66373;SHT30;53168;51.146;17.120;2023-05-18T14:16:33;22.65;36.51
66373;SHT30;53168;51.146;17.120;2023-05-18T14:40:17;22.26;36.83
66373;SHT30;53168;51.146;17.120;2023-05-18T14:42:53;22.49;37.26
66373;SHT30;53168;51.146;17.120;2023-05-18T14:45:40;22.76;36.40
66373;SHT30;53168;51.146;17.120;2023-05-18T14:49:12;22.86;36.39
66373;SHT30;53168;51.146;17.120;2023-05-18T14:52:38;22.80;36.23
66373;SHT30;53168;51.146;17.120;2023-05-18T14:56:41;22.56;36.31
66373;SHT30;53168;51.146;17.120;2023-05-18T14:59:40;22.08;36.58
66373;SHT30;53168;51.146;17.120;2023-05-18T15:02:38;21.58;36.63
66373;SHT30;53168;51.146;17.120;2023-05-18T15:05:16;21.26;37.06
66373;SHT30;53168;51.146;17.120;2023-05-18T15:08:10;21.44;36.97
66373;SHT30;53168;51.146;17.120;2023-05-18T15:11:38;21.76;36.96
66373;SHT30;53168;51.146;17.120;2023-05-18T15:45:43;19.74;37.68
66373;SHT30;53168;51.146;17.120;2023-05-18T16:21:55;20.86;37.53
66373;SHT30;53168;51.146;17.120;2023-05-18T16:24:29;21.15;37.30
66373;SHT30;53168;51.146;17.120;2023-05-18T16:27:46;21.55;36.87
66373;SHT30;53168;51.146;17.120;2023-05-18T16:30:42;21.86;36.53
66373;SHT30;53168;51.146;17.120;2023-05-18T16:33:42;22.17;36.57
66373;SHT30;53168;51.146;17.120;2023-05-18T16:36:39;22.51;36.35
66373;SHT30;53168;51.146;17.120;2023-05-18T16:43:58;22.80;35.40
66373;SHT30;53168;51.146;17.120;2023-05-18T16:50:38;22.21;35.99
66373;SHT30;53168;51.146;17.120;2023-05-18T16:53:32;21.59;36.23
66373;SHT30;53168;51.146;17.120;2023-05-18T17:35:08;17.45;41.77
66373;SHT30;53168;51.146;17.120;2023-05-18T17:37:45;17.30;42.10
66373;SHT30;53168;51.146;17.120;2023-05-18T17:40:23;17.17;42.37
66373;SHT30;53168;51.146;17.120;2023-05-18T17:43:01;17.06;42.62
66373;SHT30;53168;51.146;17.120;2023-05-18T17:45:39;16.94;43.02
66373;SHT30;53168;51.146;17.120;2023-05-18T17:48:13;16.83;43.51
66373;SHT30;53168;51.146;17.120;2023-05-18T17:51:00;16.71;43.56
66373;SHT30;53168;51.146;17.120;2023-05-18T18:10:26;16.13;45.26
66373;SHT30;53168;51.146;17.120;2023-05-18T18:13:01;16.05;45.60
66373;SHT30;53168;51.146;17.120;2023-05-18T18:15:31;15.96;46.08
66373;SHT30;53168;51.146;17.120;2023-05-18T18:18:10;15.85;46.22
66373;SHT30;53168;51.146;17.120;2023-05-18T18:20:42;15.76;46.35
66373;SHT30;53168;51.146;17.120;2023-05-18T18:23:22;15.66;46.53
66373;SHT30;53168;51.146;17.120;2023-05-18T18:44:39;15.03;47.96
66373;SHT30;53168;51.146;17.120;2023-05-18T18:47:38;14.96;48.22
66373;SHT30;53168;51.146;17.120;2023-05-18T18:50:30;14.85;48.57
66373;SHT30;53168;51.146;17.120;2023-05-18T18:53:35;14.74;49.06
66373;SHT30;53168;51.146;17.120;2023-05-18T18:57:11;14.61;49.24
66373;SHT30;53168;51.146;17.120;2023-05-18T19:00:19;14.50;49.63
66373;SHT30;53168;51.146;17.120;2023-05-18T19:03:31;14.39;49.85
66373;SHT30;53168;51.146;17.120;2023-05-18T20:24:41;12.78;55.33
66373;SHT30;53168;51.146;17.120;2023-05-18T20:27:16;12.73;55.51
66373;SHT30;53168;51.146;17.120;2023-05-18T20:33:09;12.72;55.69
66373;SHT30;53168;51.146;17.120;2023-05-18T20:40:24;12.66;56.00
66373;SHT30;53168;51.146;17.120;2023-05-18T20:43:42;12.60;56.33
66373;SHT30;53168;51.146;17.120;2023-05-18T20:46:43;12.55;56.46
66373;SHT30;53168;51.146;17.120;2023-05-18T20:49:41;12.51;56.60
66373;SHT30;53168;51.146;17.120;2023-05-18T20:56:23;12.41;56.77
66373;SHT30;53168;51.146;17.120;2023-05-18T20:59:36;12.38;56.99
66373;SHT30;53168;51.146;17.120;2023-05-18T21:02:38;12.34;57.25
66373;SHT30;53168;51.146;17.120;2023-05-18T21:05:51;12.29;57.48
66373;SHT30;53168;51.146;17.120;2023-05-18T21:08:33;12.26;57.64
66373;SHT30;53168;51.146;17.120;2023-05-18T21:18:45;12.27;58.00
66373;SHT30;53168;51.146;17.120;2023-05-18T21:21:48;12.25;58.13
66373;SHT30;53168;51.146;17.120;2023-05-18T21:24:50;12.23;58.34
66373;SHT30;53168;51.146;17.120;2023-05-18T21:27:49;12.22;58.42
66373;SHT30;53168;51.146;17.120;2023-05-18T21:31:27;12.18;58.63
66373;SHT30;53168;51.146;17.120;2023-05-18T21:34:42;12.15;58.79
66373;SHT30;53168;51.146;17.120;2023-05-18T21:37:35;12.14;58.95
66373;SHT30;53168;51.146;17.120;2023-05-18T21:40:56;12.18;59.05
66373;SHT30;53168;51.146;17.120;2023-05-18T21:43:59;12.19;59.22
66373;SHT30;53168;51.146;17.120;2023-05-18T22:14:35;12.21;60.47
66373;SHT30;53168;51.146;17.120;2023-05-18T22:17:10;12.21;60.58
66373;SHT30;53168;51.146;17.120;2023-05-18T22:19:45;12.19;60.74
66373;SHT30;53168;51.146;17.120;2023-05-18T22:22:20;12.18;60.84
66373;SHT30;53168;51.146;17.120;2023-05-18T22:25:01;12.19;60.96
66373;SHT30;53168;51.146;17.120;2023-05-18T22:27:39;12.19;61.15
66373;SHT30;53168;51.146;17.120;2023-05-18T22:30:14;12.18;61.23
66373;SHT30;53168;51.146;17.120;2023-05-18T22:32:50;12.14;61.38
66373;SHT30;53168;51.146;17.120;2023-05-18T22:35:25;12.12;61.41
66373;SHT30;53168;51.146;17.120;2023-05-18T22:37:59;12.12;61.43
66373;SHT30;53168;51.146;17.120;2023-05-18T22:40:34;12.10;61.52
66373;SHT30;53168;51.146;17.120;2023-05-18T22:43:12;12.07;61.62
66373;SHT30;53168;51.146;17.120;2023-05-18T22:45:48;12.09;61.61
66373;SHT30;53168;51.146;17.120;2023-05-18T22:48:22;12.10;61.68
66373;SHT30;53168;51.146;17.120;2023-05-18T22:50:57;12.09;61.81
66373;SHT30;53168;51.146;17.120;2023-05-18T22:53:34;12.06;61.87
66373;SHT30;53168;51.146;17.120;2023-05-18T22:56:08;12.05;61.84
66373;SHT30;53168;51.146;17.120;2023-05-18T22:58:42;12.04;61.80
66373;SHT30;53168;51.146;17.120;2023-05-18T23:01:16;12.02;61.87
66373;SHT30;53168;51.146;17.120;2023-05-18T23:03:52;12.01;62.10
66373;SHT30;53168;51.146;17.120;2023-05-18T23:06:26;11.99;62.31
66373;SHT30;53168;51.146;17.120;2023-05-18T23:09:02;11.98;62.47
66373;SHT30;53168;51.146;17.120;2023-05-18T23:12:06;11.98;62.47
66373;SHT30;53168;51.146;17.120;2023-05-18T23:16:15;11.95;62.57
66373;SHT30;53168;51.146;17.120;2023-05-18T23:46:05;11.76;63.93
